Time;durP1;ratioP1;P1;durP2;ratioP2;P2;SDS_P1;SDS_P2;PMS_P1;PMS_P2;Temp;Humidity;BMP_temperature;BMP_pressure;BME280_temperature;BME280_humidity;BME280_pressure;Samples;Min_cycle;Max_cycle;Signal;HPM_P1;HPM_P2
2021/09/02 00:00:16;;;;;;;4.20;2.63;;;;;;;;;;5024459;28;21083;-79
2021/09/02 00:02:41;;;;;;;3.10;2.40;;;;;;;;;;5024423;28;20173;-80
2021/09/02 00:05:06;;;;;;;3.43;2.37;;;;;;;;;;5024277;28;20689;-79
2021/09/02 00:07:32;;;;;;;3.53;2.63;;;;;;;;;;5025043;28;20536;-79
2021/09/02 00:09:57;;;;;;;4.13;2.73;;;;;;;;;;5025318;28;20211;-79
2021/09/02 00:12:22;;;;;;;4.90;3.27;;;;;;;;;;5025953;28;20268;-79
2021/09/02 00:14:48;;;;;;;4.73;3.10;;;;;;;;;;5022843;28;20196;-79
2021/09/02 00:17:13;;;;;;;6.23;3.27;;;;;;;;;;5023907;28;20619;-79
2021/09/02 00:19:38;;;;;;;3.83;2.60;;;;;;;;;;5024535;28;20188;-80
2021/09/02 00:22:04;;;;;;;6.57;3.70;;;;;;;;;;5024521;28;20177;-79
2021/09/02 00:24:29;;;;;;;7.53;3.40;;;;;;;;;;5029489;28;20757;-79
2021/09/02 00:26:54;;;;;;;3.50;2.93;;;;;;;;;;5032601;28;20179;-79
2021/09/02 00:29:19;;;;;;;5.90;3.13;;;;;;;;;;5030123;28;20188;-79
2021/09/02 00:31:45;;;;;;;5.30;3.40;;;;;;;;;;5032226;28;20200;-79
2021/09/02 00:34:10;;;;;;;5.80;3.50;;;;;;;;;;5031069;28;20176;-79
2021/09/02 00:36:36;;;;;;;3.40;2.70;;;;;;;;;;5029243;28;20181;-80
2021/09/02 00:39:01;;;;;;;5.13;2.80;;;;;;;;;;5022581;28;20353;-81
2021/09/02 00:41:26;;;;;;;5.10;3.33;;;;;;;;;;5025299;28;20183;-80
2021/09/02 00:43:52;;;;;;;5.00;2.63;;;;;;;;;;5024983;28;20180;-79
2021/09/02 00:46:17;;;;;;;6.93;3.40;;;;;;;;;;5028690;28;20196;-79
2021/09/02 00:48:46;;;;;;;3.70;2.60;;;;;;;;;;5027022;28;20240;-79
2021/09/02 00:51:13;;;;;;;4.30;3.23;;;;;;;;;;5027221;28;20287;-79
2021/09/02 00:53:38;;;;;;;6.00;3.00;;;;;;;;;;5039524;28;20807;-79
2021/09/02 00:56:03;;;;;;;4.33;3.23;;;;;;;;;;5025103;28;20450;-79
2021/09/02 00:58:29;;;;;;;5.77;2.93;;;;;;;;;;5024774;28;20200;-79
2021/09/02 01:00:54;;;;;;;4.37;2.60;;;;;;;;;;5025949;28;20165;-79
2021/09/02 01:03:20;;;;;;;4.83;3.13;;;;;;;;;;5022275;28;20187;-79
2021/09/02 01:05:46;;;;;;;6.43;3.30;;;;;;;;;;5025158;28;20276;-79
2021/09/02 01:08:12;;;;;;;4.37;3.17;;;;;;;;;;5026273;28;20173;-79
2021/09/02 01:10:39;;;;;;;5.47;3.30;;;;;;;;;;5024881;28;20403;-79
2021/09/02 01:13:04;;;;;;;6.37;3.33;;;;;;;;;;5024752;28;20480;-79
2021/09/02 01:15:30;;;;;;;6.53;4.17;;;;;;;;;;5023195;28;21107;-80
2021/09/02 01:17:57;;;;;;;5.03;3.60;;;;;;;;;;5024199;28;20550;-79
2021/09/02 01:20:24;;;;;;;5.30;3.93;;;;;;;;;;5022275;28;20213;-79
2021/09/02 01:22:49;;;;;;;10.23;4.13;;;;;;;;;;5021991;28;20917;-79
2021/09/02 01:25:19;;;;;;;5.30;3.43;;;;;;;;;;5022447;28;20505;-79
2021/09/02 01:27:46;;;;;;;4.87;3.53;;;;;;;;;;5022427;28;20641;-79
2021/09/02 01:30:13;;;;;;;7.97;4.00;;;;;;;;;;5023762;28;20400;-80
2021/09/02 01:32:39;;;;;;;4.20;3.43;;;;;;;;;;5023758;28;20958;-79
2021/09/02 01:35:08;;;;;;;6.17;4.43;;;;;;;;;;5022483;28;20439;-80
2021/09/02 01:37:37;;;;;;;5.83;4.23;;;;;;;;;;5023776;28;20419;-80
2021/09/02 01:40:03;;;;;;;6.00;4.50;;;;;;;;;;5022881;28;20451;-79
2021/09/02 01:42:28;;;;;;;6.20;4.20;;;;;;;;;;5021624;28;20443;-79
2021/09/02 01:44:53;;;;;;;7.80;4.90;;;;;;;;;;5037953;28;20216;-80
2021/09/02 01:47:25;;;;;;;7.00;4.20;;;;;;;;;;5022819;28;20216;-80
2021/09/02 01:49:52;;;;;;;6.23;3.83;;;;;;;;;;5031125;28;20228;-80
2021/09/02 01:52:18;;;;;;;7.10;4.13;;;;;;;;;;5026953;28;20415;-79
2021/09/02 01:54:43;;;;;;;9.27;4.10;;;;;;;;;;5024737;28;20473;-80
2021/09/02 01:57:09;;;;;;;6.93;3.90;;;;;;;;;;5023026;28;20625;-79
2021/09/02 01:59:34;;;;;;;7.10;4.83;;;;;;;;;;5023347;28;20862;-79
2021/09/02 02:01:59;;;;;;;5.90;3.90;;;;;;;;;;5024528;28;20657;-79
2021/09/02 02:04:25;;;;;;;6.60;4.67;;;;;;;;;;5026150;28;20588;-79
2021/09/02 02:06:50;;;;;;;8.77;4.60;;;;;;;;;;5026213;28;20192;-79
2021/09/02 02:09:15;;;;;;;5.83;4.47;;;;;;;;;;5027557;28;20169;-79
2021/09/02 02:11:40;;;;;;;6.40;4.00;;;;;;;;;;5032268;28;20177;-79
2021/09/02 02:14:06;;;;;;;10.20;4.40;;;;;;;;;;5026148;28;20180;-79
2021/09/02 02:16:31;;;;;;;8.70;5.50;;;;;;;;;;5026548;28;20240;-79
2021/09/02 02:18:56;;;;;;;6.00;4.23;;;;;;;;;;5026844;28;20204;-79
2021/09/02 02:21:21;;;;;;;7.93;4.97;;;;;;;;;;5027921;28;20670;-79
2021/09/02 02:23:46;;;;;;;8.40;4.60;;;;;;;;;;5027303;28;20593;-79
2021/09/02 02:26:12;;;;;;;8.07;4.80;;;;;;;;;;5027366;28;20196;-80
2021/09/02 02:28:37;;;;;;;5.77;4.23;;;;;;;;;;5025682;28;20173;-79
2021/09/02 02:31:02;;;;;;;9.90;5.20;;;;;;;;;;5026065;28;20172;-79
2021/09/02 02:33:27;;;;;;;7.50;4.70;;;;;;;;;;5026411;28;21091;-80
2021/09/02 02:35:53;;;;;;;8.90;5.13;;;;;;;;;;5026698;28;20271;-79
2021/09/02 02:38:19;;;;;;;7.23;4.87;;;;;;;;;;5026644;28;20172;-79
2021/09/02 02:40:44;;;;;;;6.43;4.30;;;;;;;;;;5034566;28;20411;-79
2021/09/02 02:43:09;;;;;;;10.77;4.97;;;;;;;;;;5028778;28;20638;-79
2021/09/02 02:45:34;;;;;;;10.00;6.03;;;;;;;;;;5029545;28;20199;-80
2021/09/02 02:48:00;;;;;;;10.23;5.30;;;;;;;;;;5031215;28;20174;-79
2021/09/02 02:50:25;;;;;;;7.97;4.90;;;;;;;;;;5031629;28;20181;-79
2021/09/02 02:52:50;;;;;;;8.87;5.50;;;;;;;;;;5030468;28;20173;-79
2021/09/02 02:55:16;;;;;;;7.97;5.40;;;;;;;;;;5030577;28;20196;-80
2021/09/02 02:57:41;;;;;;;6.83;4.57;;;;;;;;;;5029344;28;20264;-79
2021/09/02 03:00:06;;;;;;;10.33;4.80;;;;;;;;;;5029330;28;20254;-79
2021/09/02 03:02:32;;;;;;;7.20;4.20;;;;;;;;;;5028268;28;20172;-79
2021/09/02 03:04:57;;;;;;;11.50;5.70;;;;;;;;;;5027660;28;20193;-79
2021/09/02 03:07:22;;;;;;;8.90;4.97;;;;;;;;;;5027864;28;20161;-79
2021/09/02 03:09:48;;;;;;;7.50;5.43;;;;;;;;;;5027512;28;20172;-79
2021/09/02 03:12:13;;;;;;;11.67;5.77;;;;;;;;;;5028076;28;20180;-79
2021/09/02 03:14:38;;;;;;;8.33;5.03;;;;;;;;;;5026564;28;20196;-79
2021/09/02 03:17:03;;;;;;;10.87;5.50;;;;;;;;;;5039310;28;20674;-80
2021/09/02 03:19:29;;;;;;;9.07;5.77;;;;;;;;;;5025938;28;20247;-79
2021/09/02 03:21:54;;;;;;;15.30;6.90;;;;;;;;;;5023671;28;20252;-80
2021/09/02 03:24:19;;;;;;;10.43;5.67;;;;;;;;;;5022971;28;20266;-79
2021/09/02 03:26:44;;;;;;;10.20;5.57;;;;;;;;;;5021950;28;20711;-79
2021/09/02 03:29:10;;;;;;;7.60;5.67;;;;;;;;;;5022357;28;20173;-79
2021/09/02 03:31:35;;;;;;;9.47;5.50;;;;;;;;;;5026759;28;20267;-79
2021/09/02 03:34:02;;;;;;;9.37;5.93;;;;;;;;;;5025501;28;20201;-79
2021/09/02 03:36:30;;;;;;;10.17;6.20;;;;;;;;;;5025698;28;20211;-79
2021/09/02 03:38:55;;;;;;;10.17;5.70;;;;;;;;;;5025830;28;20871;-79
2021/09/02 03:41:21;;;;;;;9.47;5.47;;;;;;;;;;5025519;28;20424;-79
2021/09/02 03:43:46;;;;;;;9.60;6.20;;;;;;;;;;5023601;28;20173;-79
2021/09/02 03:46:11;;;;;;;10.17;6.63;;;;;;;;;;5027444;28;20197;-79
2021/09/02 03:48:36;;;;;;;12.20;6.53;;;;;;;;;;5024590;28;20180;-80
2021/09/02 03:51:02;;;;;;;10.53;5.97;;;;;;;;;;5026096;28;20259;-79
2021/09/02 03:53:27;;;;;;;10.13;6.40;;;;;;;;;;5024416;28;20245;-79
2021/09/02 03:55:52;;;;;;;14.63;6.60;;;;;;;;;;5025792;28;20197;-79
2021/09/02 03:58:17;;;;;;;9.67;6.23;;;;;;;;;;5025069;28;20200;-79
2021/09/02 04:00:43;;;;;;;8.50;6.00;;;;;;;;;;5025623;28;20179;-79
2021/09/02 04:03:08;;;;;;;6.80;5.37;;;;;;;;;;5025575;28;20192;-79
2021/09/02 04:05:33;;;;;;;7.80;5.90;;;;;;;;;;5024159;28;20255;-79
2021/09/02 04:07:58;;;;;;;12.07;6.63;;;;;;;;;;5023591;28;20235;-79
2021/09/02 04:10:24;;;;;;;10.67;6.43;;;;;;;;;;5022242;28;20180;-79
2021/09/02 04:12:49;;;;;;;9.53;6.17;;;;;;;;;;5024289;28;20204;-79
2021/09/02 04:15:14;;;;;;;9.77;6.40;;;;;;;;;;5025064;28;20287;-79
2021/09/02 04:17:39;;;;;;;8.50;5.20;;;;;;;;;;5024112;28;20188;-79
2021/09/02 04:20:05;;;;;;;8.97;6.57;;;;;;;;;;5025304;28;20665;-79
2021/09/02 04:22:30;;;;;;;13.40;6.50;;;;;;;;;;5023717;28;20185;-79
2021/09/02 04:24:58;;;;;;;13.63;6.07;;;;;;;;;;5024288;28;20219;-79
2021/09/02 04:27:23;;;;;;;11.40;7.60;;;;;;;;;;5023524;28;20805;-80
2021/09/02 04:29:48;;;;;;;7.80;5.50;;;;;;;;;;5024611;28;20405;-79
2021/09/02 04:32:14;;;;;;;12.97;6.90;;;;;;;;;;5024936;28;20184;-79
2021/09/02 04:34:39;;;;;;;10.17;5.93;;;;;;;;;;5024503;28;20200;-79
2021/09/02 04:37:05;;;;;;;11.20;6.10;;;;;;;;;;5023454;28;20188;-79
2021/09/02 04:39:30;;;;;;;17.40;6.40;;;;;;;;;;5024625;28;21228;-79
2021/09/02 04:41:55;;;;;;;10.33;6.40;;;;;;;;;;5025159;28;20419;-79
2021/09/02 04:44:21;;;;;;;9.50;6.70;;;;;;;;;;5024022;28;20242;-79
2021/09/02 04:46:46;;;;;;;8.93;5.93;;;;;;;;;;5021033;28;20272;-80
2021/09/02 04:49:13;;;;;;;12.00;7.50;;;;;;;;;;5023761;28;20177;-79
2021/09/02 04:51:38;;;;;;;10.50;6.47;;;;;;;;;;5025041;28;20168;-79
2021/09/02 04:54:04;;;;;;;12.57;7.77;;;;;;;;;;5023867;28;20500;-79
2021/09/02 04:56:29;;;;;;;14.63;7.27;;;;;;;;;;5024064;28;20191;-79
2021/09/02 04:58:54;;;;;;;9.90;5.93;;;;;;;;;;5022524;28;20243;-79
2021/09/02 05:01:19;;;;;;;15.97;7.27;;;;;;;;;;5023898;28;20169;-80
2021/09/02 05:03:45;;;;;;;10.63;6.50;;;;;;;;;;5023426;28;20203;-79
2021/09/02 05:06:10;;;;;;;10.90;7.40;;;;;;;;;;5024153;28;20185;-79
2021/09/02 05:08:35;;;;;;;14.13;7.37;;;;;;;;;;5024753;28;20180;-79
2021/09/02 05:11:00;;;;;;;11.40;7.20;;;;;;;;;;5025214;28;20264;-79
2021/09/02 05:13:26;;;;;;;12.37;7.30;;;;;;;;;;5024236;28;20720;-79
2021/09/02 05:15:51;;;;;;;12.17;7.00;;;;;;;;;;5025077;28;20193;-80
2021/09/02 05:18:16;;;;;;;12.63;7.10;;;;;;;;;;5025150;28;20575;-80
2021/09/02 05:20:41;;;;;;;10.87;6.70;;;;;;;;;;5029626;28;20200;-79
2021/09/02 05:23:07;;;;;;;11.20;7.50;;;;;;;;;;5028847;28;20735;-79
2021/09/02 05:25:32;;;;;;;15.93;8.17;;;;;;;;;;5033838;28;20215;-79
2021/09/02 05:27:57;;;;;;;10.97;7.50;;;;;;;;;;5036144;28;20188;-79
2021/09/02 05:30:22;;;;;;;13.07;7.47;;;;;;;;;;5035927;28;20267;-79
2021/09/02 05:32:48;;;;;;;12.07;7.83;;;;;;;;;;5035414;28;20173;-79
2021/09/02 05:35:13;;;;;;;10.40;7.20;;;;;;;;;;5033688;28;20203;-79
2021/09/02 05:37:38;;;;;;;10.00;7.87;;;;;;;;;;5033561;28;20184;-80
2021/09/02 05:40:05;;;;;;;11.20;7.30;;;;;;;;;;5034097;28;20226;-79
2021/09/02 05:42:30;;;;;;;12.73;7.90;;;;;;;;;;5039816;28;20176;-80
2021/09/02 05:44:55;;;;;;;11.90;7.00;;;;;;;;;;5031968;28;20956;-80
2021/09/02 05:47:20;;;;;;;13.43;7.60;;;;;;;;;;5031332;28;20230;-79
2021/09/02 05:49:46;;;;;;;13.37;8.50;;;;;;;;;;5048505;28;20189;-79
2021/09/02 05:52:11;;;;;;;12.00;7.20;;;;;;;;;;5031655;28;20252;-80
2021/09/02 05:54:36;;;;;;;9.83;7.30;;;;;;;;;;5032001;28;20250;-80
2021/09/02 05:57:02;;;;;;;13.43;7.17;;;;;;;;;;5030596;28;20169;-79
2021/09/02 05:59:27;;;;;;;10.90;7.67;;;;;;;;;;5030412;28;20673;-80
2021/09/02 06:01:52;;;;;;;14.10;7.13;;;;;;;;;;5030256;28;20181;-80
2021/09/02 06:04:17;;;;;;;11.90;6.90;;;;;;;;;;5031201;28;20219;-80
2021/09/02 06:06:43;;;;;;;13.00;7.60;;;;;;;;;;5030956;28;20172;-79
2021/09/02 06:09:08;;;;;;;11.27;7.70;;;;;;;;;;5032029;28;20176;-79
2021/09/02 06:11:35;;;;;;;12.60;7.30;;;;;;;;;;5030547;28;20275;-79
2021/09/02 06:14:00;;;;;;;14.00;7.23;;;;;;;;;;5029368;28;20419;-79
2021/09/02 06:16:25;;;;;;;13.43;7.47;;;;;;;;;;5030167;28;20188;-80
2021/09/02 06:18:51;;;;;;;13.20;7.33;;;;;;;;;;5028680;28;20199;-80
2021/09/02 06:21:16;;;;;;;11.00;8.63;;;;;;;;;;5029476;28;20582;-79
2021/09/02 06:23:41;;;;;;;13.57;8.27;;;;;;;;;;5030555;28;20176;-80
2021/09/02 06:26:06;;;;;;;10.03;7.50;;;;;;;;;;5029783;28;20216;-80
2021/09/02 06:28:31;;;;;;;12.83;7.10;;;;;;;;;;5029639;28;20176;-80
2021/09/02 06:30:57;;;;;;;12.87;7.20;;;;;;;;;;5030257;28;20242;-79
2021/09/02 06:33:22;;;;;;;10.83;7.23;;;;;;;;;;5028537;28;20180;-79
2021/09/02 06:35:47;;;;;;;12.07;7.70;;;;;;;;;;5028195;28;20200;-79
2021/09/02 06:38:12;;;;;;;10.30;7.40;;;;;;;;;;5024727;28;20536;-79
2021/09/02 06:40:38;;;;;;;12.57;6.57;;;;;;;;;;5026683;28;20247;-79
2021/09/02 06:43:03;;;;;;;10.93;7.27;;;;;;;;;;5027072;28;20252;-80
2021/09/02 06:45:28;;;;;;;12.87;7.47;;;;;;;;;;5026542;28;20224;-80
2021/09/02 06:47:54;;;;;;;11.90;7.70;;;;;;;;;;5026602;28;20288;-80
2021/09/02 06:50:19;;;;;;;12.77;8.00;;;;;;;;;;5023608;28;20176;-80
2021/09/02 06:52:45;;;;;;;11.50;7.57;;;;;;;;;;5027135;28;20192;-80
2021/09/02 06:55:11;;;;;;;11.63;7.43;;;;;;;;;;5026309;28;20254;-80
2021/09/02 06:57:36;;;;;;;13.70;7.13;;;;;;;;;;5027120;28;20232;-80
2021/09/02 07:00:06;;;;;;;14.83;9.00;;;;;;;;;;5025621;28;20547;-80
2021/09/02 07:02:31;;;;;;;14.33;7.60;;;;;;;;;;5025512;28;20664;-80
2021/09/02 07:04:56;;;;;;;12.60;8.60;;;;;;;;;;5021993;28;20423;-80
2021/09/02 07:07:21;;;;;;;15.90;8.90;;;;;;;;;;5021934;28;20169;-80
2021/09/02 07:09:47;;;;;;;14.00;8.47;;;;;;;;;;5022958;28;20173;-79
2021/09/02 07:12:12;;;;;;;12.80;8.20;;;;;;;;;;5023220;28;20172;-80
2021/09/02 07:14:37;;;;;;;11.57;7.80;;;;;;;;;;5025560;28;20311;-79
2021/09/02 07:17:03;;;;;;;14.07;8.90;;;;;;;;;;5025428;28;20179;-79
2021/09/02 07:19:29;;;;;;;14.97;8.20;;;;;;;;;;5024693;28;20197;-79
2021/09/02 07:21:54;;;;;;;11.90;7.30;;;;;;;;;;5025125;28;20437;-80
2021/09/02 07:24:19;;;;;;;11.70;6.77;;;;;;;;;;5026452;28;20196;-79
2021/09/02 07:26:45;;;;;;;16.93;7.73;;;;;;;;;;5025507;28;20185;-79
2021/09/02 07:29:10;;;;;;;14.17;7.20;;;;;;;;;;5024952;28;20212;-79
2021/09/02 07:31:36;;;;;;;14.03;7.23;;;;;;;;;;5025870;28;20177;-80
2021/09/02 07:34:01;;;;;;;13.00;8.00;;;;;;;;;;5027293;28;20176;-80
2021/09/02 07:36:26;;;;;;;16.30;8.27;;;;;;;;;;5031034;28;20192;-80
2021/09/02 07:38:52;;;;;;;16.23;7.60;;;;;;;;;;5032819;28;20682;-79
2021/09/02 07:41:17;;;;;;;11.20;6.97;;;;;;;;;;5031516;28;20203;-79
2021/09/02 07:43:42;;;;;;;9.70;6.00;;;;;;;;;;5028417;28;20173;-79
2021/09/02 07:46:08;;;;;;;8.07;5.70;;;;;;;;;;5027575;28;20200;-80
2021/09/02 07:48:33;;;;;;;11.97;5.97;;;;;;;;;;5029502;28;20204;-79
2021/09/02 07:50:59;;;;;;;8.63;5.77;;;;;;;;;;5027530;28;20204;-80
2021/09/02 07:53:24;;;;;;;8.90;5.83;;;;;;;;;;5028906;28;20199;-80
2021/09/02 07:55:49;;;;;;;13.37;6.90;;;;;;;;;;5025338;28;20284;-80
2021/09/02 07:58:14;;;;;;;8.40;5.70;;;;;;;;;;5023882;28;20208;-80
2021/09/02 08:00:40;;;;;;;11.40;5.87;;;;;;;;;;5027570;28;20204;-80
2021/09/02 08:03:05;;;;;;;11.73;6.20;;;;;;;;;;5026511;28;20555;-80
2021/09/02 08:05:30;;;;;;;11.27;6.17;;;;;;;;;;5025035;28;20189;-79
2021/09/02 08:07:55;;;;;;;8.23;5.20;;;;;;;;;;5025952;28;20169;-81
2021/09/02 08:10:22;;;;;;;10.40;5.93;;;;;;;;;;5024663;28;20554;-80
2021/09/02 08:12:47;;;;;;;8.33;5.60;;;;;;;;;;5023568;28;20184;-80
2021/09/02 08:15:13;;;;;;;9.90;5.80;;;;;;;;;;5024977;28;20431;-81
2021/09/02 08:17:39;;;;;;;8.60;5.83;;;;;;;;;;5025002;28;20181;-82
2021/09/02 08:20:05;;;;;;;10.07;5.87;;;;;;;;;;5023843;28;20284;-82
2021/09/02 08:22:30;;;;;;;8.00;5.50;;;;;;;;;;5021156;28;20408;-82
2021/09/02 08:24:55;;;;;;;7.13;5.27;;;;;;;;;;5019316;28;20204;-81
2021/09/02 08:27:20;;;;;;;8.07;5.27;;;;;;;;;;5022216;28;20255;-81
2021/09/02 08:29:46;;;;;;;7.20;4.90;;;;;;;;;;5025594;28;20172;-82
2021/09/02 08:32:12;;;;;;;8.20;5.00;;;;;;;;;;5024427;28;20173;-81
2021/09/02 08:34:37;;;;;;;9.97;5.90;;;;;;;;;;5023841;28;21230;-82
2021/09/02 08:37:02;;;;;;;9.10;6.43;;;;;;;;;;5023182;28;20170;-82
2021/09/02 08:39:28;;;;;;;7.70;5.60;;;;;;;;;;5023894;28;20220;-81
2021/09/02 08:41:53;;;;;;;11.30;6.60;;;;;;;;;;5023443;28;20535;-81
2021/09/02 08:44:19;;;;;;;9.67;5.87;;;;;;;;;;5023936;28;20268;-82
2021/09/02 08:46:44;;;;;;;8.70;6.40;;;;;;;;;;5025359;28;20177;-81
2021/09/02 08:49:10;;;;;;;11.73;6.77;;;;;;;;;;5024241;28;20733;-82
2021/09/02 08:51:36;;;;;;;11.10;7.13;;;;;;;;;;5025654;28;20176;-82
2021/09/02 08:54:02;;;;;;;10.10;6.73;;;;;;;;;;5025424;28;20408;-81
2021/09/02 08:56:28;;;;;;;8.80;5.90;;;;;;;;;;5023751;28;20423;-82
2021/09/02 08:58:53;;;;;;;13.43;7.13;;;;;;;;;;5022946;28;20193;-81
2021/09/02 09:01:18;;;;;;;10.53;7.23;;;;;;;;;;5022097;28;20764;-81
2021/09/02 09:03:47;;;;;;;10.70;7.23;;;;;;;;;;5019688;28;20172;-81
2021/09/02 09:06:21;;;;;;;9.83;7.30;;;;;;;;;;5021480;28;20708;-82
2021/09/02 09:08:46;;;;;;;11.43;7.13;;;;;;;;;;5017019;28;20428;-81
2021/09/02 09:11:28;;;;;;;15.43;7.70;;;;;;;;;;5023801;28;20407;-81
2021/09/02 09:14:07;;;;;;;12.23;8.23;;;;;;;;;;5024557;28;20165;-82
2021/09/02 09:17:02;;;;;;;11.70;7.20;;;;;;;;;;5023067;28;20403;-81
2021/09/02 09:19:34;;;;;;;12.83;7.40;;;;;;;;;;5017034;28;20482;-81
2021/09/02 09:21:59;;;;;;;12.27;7.90;;;;;;;;;;5025867;28;20406;-81
2021/09/02 09:24:39;;;;;;;11.30;7.27;;;;;;;;;;5024536;28;20435;-81
2021/09/02 09:27:08;;;;;;;8.40;7.10;;;;;;;;;;5024978;28;20182;-81
2021/09/02 09:29:33;;;;;;;15.33;8.77;;;;;;;;;;5023754;28;20422;-82
2021/09/02 09:32:09;;;;;;;9.90;8.30;;;;;;;;;;5024690;28;20798;-81
2021/09/02 09:34:35;;;;;;;14.83;9.27;;;;;;;;;;5024191;28;20555;-81
2021/09/02 09:37:07;;;;;;;10.33;7.30;;;;;;;;;;5025508;28;20503;-81
2021/09/02 09:39:36;;;;;;;9.40;6.77;;;;;;;;;;5024931;28;20677;-81
2021/09/02 09:42:02;;;;;;;10.27;6.30;;;;;;;;;;5024115;28;20408;-81
2021/09/02 09:44:28;;;;;;;9.17;6.27;;;;;;;;;;5023587;28;20435;-81
2021/09/02 09:47:06;;;;;;;10.70;6.13;;;;;;;;;;5022566;28;20416;-82
2021/09/02 09:49:41;;;;;;;13.40;5.57;;;;;;;;;;5021390;28;20411;-81
2021/09/02 09:52:20;;;;;;;13.53;6.13;;;;;;;;;;5022745;28;20910;-81
2021/09/02 09:54:45;;;;;;;7.63;5.63;;;;;;;;;;5024117;28;20531;-81
2021/09/02 09:57:11;;;;;;;10.63;6.00;;;;;;;;;;5023035;28;20522;-81
2021/09/02 09:59:38;;;;;;;7.73;5.30;;;;;;;;;;5039275;28;20196;-82
2021/09/02 10:02:04;;;;;;;7.73;5.40;;;;;;;;;;5023250;28;20178;-81
2021/09/02 10:04:30;;;;;;;9.13;4.83;;;;;;;;;;5024349;28;20944;-81
2021/09/02 10:06:55;;;;;;;12.80;6.33;;;;;;;;;;5038241;28;20185;-81
2021/09/02 10:09:21;;;;;;;10.10;7.10;;;;;;;;;;5024566;28;20420;-81
2021/09/02 10:11:46;;;;;;;13.63;7.70;;;;;;;;;;5026205;28;20230;-81
2021/09/02 10:14:11;;;;;;;7.70;6.10;;;;;;;;;;5026523;28;20231;-81
2021/09/02 10:16:37;;;;;;;10.70;5.70;;;;;;;;;;5027514;28;20176;-81
2021/09/02 10:19:03;;;;;;;10.23;6.57;;;;;;;;;;5026904;28;20287;-81
2021/09/02 10:21:28;;;;;;;8.67;6.90;;;;;;;;;;5028310;28;20449;-81
2021/09/02 10:23:53;;;;;;;9.60;7.30;;;;;;;;;;5023849;28;20177;-81
2021/09/02 10:26:32;;;;;;;10.17;7.10;;;;;;;;;;5022673;28;20609;-81
2021/09/02 10:28:57;;;;;;;9.23;7.60;;;;;;;;;;5023235;28;20173;-81
2021/09/02 10:31:23;;;;;;;10.93;8.80;;;;;;;;;;5025947;28;20820;-81
2021/09/02 10:33:48;;;;;;;11.27;8.53;;;;;;;;;;5026808;28;20173;-81
2021/09/02 10:36:13;;;;;;;13.17;8.87;;;;;;;;;;5025246;28;20657;-81
2021/09/02 10:38:51;;;;;;;12.73;8.90;;;;;;;;;;5027003;28;20181;-81
2021/09/02 10:41:39;;;;;;;10.13;9.03;;;;;;;;;;5027556;28;20580;-81
2021/09/02 10:44:06;;;;;;;10.73;8.80;;;;;;;;;;5026305;28;20403;-81
2021/09/02 10:46:38;;;;;;;11.70;9.07;;;;;;;;;;5028707;28;20426;-81
2021/09/02 10:49:10;;;;;;;14.10;9.37;;;;;;;;;;5026860;28;20922;-81
2021/09/02 10:51:36;;;;;;;14.40;10.20;;;;;;;;;;5028423;28;20430;-81
2021/09/02 10:54:03;;;;;;;16.90;10.23;;;;;;;;;;5028785;28;20432;-81
2021/09/02 10:56:32;;;;;;;13.07;9.87;;;;;;;;;;5027581;28;20426;-81
2021/09/02 10:58:57;;;;;;;11.83;9.60;;;;;;;;;;5026633;28;20456;-81
2021/09/02 11:01:23;;;;;;;15.43;11.03;;;;;;;;;;5024949;28;20767;-81
2021/09/02 11:03:48;;;;;;;15.93;10.10;;;;;;;;;;5027362;28;20165;-81
2021/09/02 11:06:15;;;;;;;14.20;8.70;;;;;;;;;;5023960;28;20192;-82
2021/09/02 11:08:40;;;;;;;10.10;8.77;;;;;;;;;;5025614;28;20780;-81
2021/09/02 11:11:12;;;;;;;12.13;8.70;;;;;;;;;;5022489;28;20428;-81
2021/09/02 11:13:38;;;;;;;9.27;7.63;;;;;;;;;;5024504;28;20177;-81
2021/09/02 11:16:10;;;;;;;11.53;8.27;;;;;;;;;;5025850;28;20432;-81
2021/09/02 11:18:42;;;;;;;11.70;7.53;;;;;;;;;;5027438;28;20259;-81
2021/09/02 11:21:33;;;;;;;12.30;7.60;;;;;;;;;;5026480;28;20428;-81
2021/09/02 11:24:00;;;;;;;9.33;6.83;;;;;;;;;;5025791;28;21008;-81
2021/09/02 11:26:36;;;;;;;12.73;7.30;;;;;;;;;;5026801;28;20807;-81
2021/09/02 11:29:03;;;;;;;10.93;7.63;;;;;;;;;;5027408;28;20769;-81
2021/09/02 11:31:28;;;;;;;11.60;5.93;;;;;;;;;;5025960;28;20407;-81
2021/09/02 11:33:54;;;;;;;12.60;7.47;;;;;;;;;;5024898;28;20956;-81
2021/09/02 11:36:19;;;;;;;10.10;7.30;;;;;;;;;;5025963;28;20216;-81
2021/09/02 11:38:46;;;;;;;12.40;7.00;;;;;;;;;;5025380;28;20207;-81
2021/09/02 11:41:20;;;;;;;7.10;5.90;;;;;;;;;;5041187;28;20439;-81
2021/09/02 11:43:45;;;;;;;8.53;6.80;;;;;;;;;;5025836;28;20455;-81
2021/09/02 11:46:11;;;;;;;12.93;6.50;;;;;;;;;;5024683;28;20428;-82
2021/09/02 11:48:46;;;;;;;10.93;7.20;;;;;;;;;;5021454;28;20235;-81
2021/09/02 11:51:17;;;;;;;7.57;6.30;;;;;;;;;;5022410;28;20172;-81
2021/09/02 11:53:43;;;;;;;8.30;5.90;;;;;;;;;;5022932;28;20396;-82
2021/09/02 11:56:11;;;;;;;8.07;6.63;;;;;;;;;;5025723;28;20426;-81
2021/09/02 11:58:37;;;;;;;12.03;7.10;;;;;;;;;;5028087;28;20231;-81
2021/09/02 12:01:02;;;;;;;8.23;6.83;;;;;;;;;;5025758;28;20412;-81
2021/09/02 12:03:27;;;;;;;8.73;7.47;;;;;;;;;;5024803;28;20176;-81
2021/09/02 12:05:54;;;;;;;10.10;7.20;;;;;;;;;;5025611;28;20242;-81
2021/09/02 12:08:19;;;;;;;7.97;6.70;;;;;;;;;;5025664;28;20170;-81
2021/09/02 12:10:46;;;;;;;9.73;6.80;;;;;;;;;;5025402;28;20420;-81
2021/09/02 12:13:21;;;;;;;12.23;6.70;;;;;;;;;;5025906;28;20169;-81
2021/09/02 12:16:00;;;;;;;8.53;7.63;;;;;;;;;;5024296;28;20432;-81
2021/09/02 12:18:28;;;;;;;11.03;8.23;;;;;;;;;;5025388;28;20807;-81
2021/09/02 12:21:04;;;;;;;11.33;7.30;;;;;;;;;;5026035;28;20450;-81
2021/09/02 12:23:30;;;;;;;8.33;6.70;;;;;;;;;;5024930;28;20399;-81
2021/09/02 12:26:02;;;;;;;11.17;6.63;;;;;;;;;;5022543;28;20451;-81
2021/09/02 12:28:32;;;;;;;8.70;7.17;;;;;;;;;;5022627;28;20249;-81
2021/09/02 12:30:58;;;;;;;10.33;7.03;;;;;;;;;;5021553;28;20408;-81
2021/09/02 12:33:23;;;;;;;8.70;6.20;;;;;;;;;;5023341;28;20781;-81
2021/09/02 12:35:48;;;;;;;8.70;6.30;;;;;;;;;;5024596;28;20253;-81
2021/09/02 12:38:32;;;;;;;9.47;6.13;;;;;;;;;;5025012;28;20173;-81
2021/09/02 12:41:17;;;;;;;8.03;6.30;;;;;;;;;;5023769;28;20189;-81
2021/09/02 12:44:01;;;;;;;10.87;6.60;;;;;;;;;;5025560;28;20916;-81
2021/09/02 12:46:27;;;;;;;8.73;6.00;;;;;;;;;;5024685;28;20920;-82
2021/09/02 12:49:25;;;;;;;9.70;6.23;;;;;;;;;;5039336;28;20462;-81
2021/09/02 12:52:11;;;;;;;8.93;5.80;;;;;;;;;;5002264;28;20191;-82
2021/09/02 12:54:55;;;;;;;8.67;6.90;;;;;;;;;;5023927;28;20969;-81
2021/09/02 12:57:20;;;;;;;8.80;6.67;;;;;;;;;;5026006;28;20922;-81
2021/09/02 12:59:45;;;;;;;10.83;7.40;;;;;;;;;;5024824;28;20450;-81
2021/09/02 13:02:11;;;;;;;10.63;6.37;;;;;;;;;;5024873;28;20661;-81
2021/09/02 13:04:36;;;;;;;11.40;6.63;;;;;;;;;;5025355;28;20588;-81
2021/09/02 13:07:05;;;;;;;9.13;5.63;;;;;;;;;;5024924;28;20169;-81
2021/09/02 13:09:30;;;;;;;9.80;6.50;;;;;;;;;;5040745;28;20276;-81
2021/09/02 13:11:56;;;;;;;11.83;6.13;;;;;;;;;;5025531;28;20454;-81
2021/09/02 13:14:21;;;;;;;8.53;6.20;;;;;;;;;;5026450;28;20188;-81
2021/09/02 13:16:47;;;;;;;12.13;6.80;;;;;;;;;;5026531;28;20181;-81
2021/09/02 13:19:12;;;;;;;10.90;6.97;;;;;;;;;;5025969;28;20189;-81
2021/09/02 13:21:38;;;;;;;9.93;6.87;;;;;;;;;;5026582;28;21117;-81
2021/09/02 13:24:03;;;;;;;10.27;7.67;;;;;;;;;;5026313;28;20576;-81
2021/09/02 13:26:28;;;;;;;11.43;8.63;;;;;;;;;;5024835;28;20189;-81
2021/09/02 13:28:59;;;;;;;9.40;8.40;;;;;;;;;;5023360;28;20234;-81
2021/09/02 13:31:24;;;;;;;10.80;7.83;;;;;;;;;;5025405;28;20167;-81
2021/09/02 13:33:49;;;;;;;12.60;7.73;;;;;;;;;;5026337;28;20467;-81
2021/09/02 13:36:15;;;;;;;12.70;7.60;;;;;;;;;;5025367;28;20246;-81
2021/09/02 13:38:40;;;;;;;11.50;7.73;;;;;;;;;;5024960;28;20173;-81
2021/09/02 13:41:05;;;;;;;13.63;7.13;;;;;;;;;;5023553;28;20172;-81
2021/09/02 13:43:31;;;;;;;8.07;7.20;;;;;;;;;;5025776;28;20180;-81
2021/09/02 13:45:56;;;;;;;11.87;6.83;;;;;;;;;;5026296;28;20565;-81
2021/09/02 13:48:21;;;;;;;9.07;6.93;;;;;;;;;;5029717;28;20200;-81
2021/09/02 13:57:26;;;;;;;6.77;6.07;;;;;;;;;;5027370;28;20405;-81
2021/09/02 13:59:51;;;;;;;9.70;7.23;;;;;;;;;;5030346;28;20493;-81
2021/09/02 14:02:17;;;;;;;9.17;7.23;;;;;;;;;;5032054;28;20430;-81
2021/09/02 14:04:42;;;;;;;8.53;6.70;;;;;;;;;;5030810;28;20196;-81
2021/09/02 14:07:08;;;;;;;12.47;6.90;;;;;;;;;;5030929;28;20179;-81
2021/09/02 14:09:33;;;;;;;9.30;6.40;;;;;;;;;;5030390;28;20216;-81
2021/09/02 14:11:58;;;;;;;11.33;8.03;;;;;;;;;;5032005;28;20204;-81
2021/09/02 14:14:23;;;;;;;10.07;7.57;;;;;;;;;;5031466;28;20201;-81
2021/09/02 14:16:49;;;;;;;8.07;7.27;;;;;;;;;;5028640;28;20176;-81
2021/09/02 14:19:14;;;;;;;9.60;6.10;;;;;;;;;;5027451;28;20621;-81
2021/09/02 14:21:40;;;;;;;10.60;7.10;;;;;;;;;;5028158;28;20173;-81
2021/09/02 14:24:05;;;;;;;9.80;7.30;;;;;;;;;;5028751;28;20177;-81
2021/09/02 14:26:30;;;;;;;8.20;7.20;;;;;;;;;;5028768;28;20537;-81
2021/09/02 14:28:55;;;;;;;9.97;7.50;;;;;;;;;;5026207;28;20532;-81
2021/09/02 14:31:21;;;;;;;9.60;8.33;;;;;;;;;;5028452;28;20177;-81
2021/09/02 14:33:46;;;;;;;10.80;9.57;;;;;;;;;;5028249;28;20173;-81
2021/09/02 14:36:11;;;;;;;9.20;7.93;;;;;;;;;;5027251;28;20193;-82
2021/09/02 14:38:37;;;;;;;10.27;9.17;;;;;;;;;;5027924;28;20172;-81